Berkley, Michigan
Current Conditions -  °F | °C
As of 8:54 PM on Monday 24 Nov 2014 (Local Time) from KVLL Reporting Station
Overcast Overcast  
Wind Chill: -2°   Ceiling: 2400
Heat Index:   Visibility: 10mi
Dew Point: -2°   Wind: 23mph
Humidity: 68%   Direction: 220°SW
Pressure: 29.61"   Gusts: 38mph
Location:  42.5°N, 83.18°W
Report Text: KVLL 250154Z AUTO 22020G33KT 10SM OVC024 04/M02 A2961 RMK AO2 T00351020
Loading
Personal Weather Stations






























Interactive Weather Map New forecast layout! Learn more

10-Day Weather Forecast

Advertisements
Track Severe Weather on mobile